Time;durP1;ratioP1;P1;durP2;ratioP2;P2;SDS_P1;SDS_P2;PMS_P1;PMS_P2;Temp;Humidity;BMP_temperature;BMP_pressure;BME280_temperature;BME280_humidity;BME280_pressure;Samples;Min_cycle;Max_cycle;Signal;HPM_P1;HPM_P2
2024/01/23 00:01:31;;;;;;;24.60;15.05;;;;;;;16.44;49.60;101686.31;5001636;28;20112;-43
2024/01/23 00:03:57;;;;;;;26.77;16.48;;;;;;;16.41;48.98;101689.25;5002955;28;20054;-42
2024/01/23 00:06:24;;;;;;;28.42;14.90;;;;;;;16.35;48.88;101697.75;5003576;28;20054;-42
2024/01/23 00:08:52;;;;;;;23.83;14.50;;;;;;;16.29;49.96;101698.25;5003892;28;20053;-42
2024/01/23 00:11:19;;;;;;;23.58;14.20;;;;;;;16.26;48.92;101712.69;5001834;28;20413;-42
2024/01/23 00:13:46;;;;;;;24.70;14.38;;;;;;;16.21;49.21;101701.53;5000211;28;20101;-43
2024/01/23 00:16:13;;;;;;;23.75;13.63;;;;;;;16.17;49.14;101705.41;5002571;28;20653;-42
2024/01/23 00:18:39;;;;;;;27.50;14.13;;;;;;;16.12;49.42;101704.91;5003800;28;20382;-42
2024/01/23 00:21:06;;;;;;;22.13;11.95;;;;;;;16.09;49.50;101710.50;5002481;28;20058;-43
2024/01/23 00:23:33;;;;;;;28.52;13.13;;;;;;;16.07;49.57;101719.59;5002404;28;20046;-41
2024/01/23 00:25:59;;;;;;;21.15;12.90;;;;;;;16.05;49.54;101722.41;5001672;28;20057;-42
2024/01/23 00:28:26;;;;;;;21.83;11.52;;;;;;;16.01;50.46;101735.16;4999219;28;20054;-43
2024/01/23 00:30:53;;;;;;;19.92;10.85;;;;;;;15.97;49.82;101735.53;4999747;28;20112;-41
2024/01/23 00:33:19;;;;;;;20.50;11.13;;;;;;;15.94;49.63;101741.09;5003095;28;20061;-42
2024/01/23 00:35:46;;;;;;;22.00;12.60;;;;;;;15.91;50.04;101744.00;5001482;28;20076;-42
2024/01/23 00:38:13;;;;;;;20.20;11.35;;;;;;;15.87;49.89;101758.56;5001475;28;20141;-41
2024/01/23 00:40:39;;;;;;;18.30;10.15;;;;;;;15.84;50.18;101762.34;5001443;28;20120;-42
2024/01/23 00:43:06;;;;;;;21.00;10.82;;;;;;;15.80;49.78;101766.22;5001932;28;20101;-42
2024/01/23 00:45:33;;;;;;;18.92;9.70;;;;;;;15.77;50.38;101769.13;5003369;28;20064;-42
2024/01/23 00:48:00;;;;;;;19.08;9.60;;;;;;;15.73;50.39;101773.00;5003593;28;20140;-43
2024/01/23 00:50:27;;;;;;;18.17;9.40;;;;;;;15.69;50.83;101799.09;5002338;28;20525;-43
2024/01/23 00:52:53;;;;;;;18.02;9.23;;;;;;;15.62;50.63;101791.63;4999408;28;20125;-43
2024/01/23 00:55:20;;;;;;;14.32;8.70;;;;;;;15.61;51.50;101784.59;5003253;28;20076;-40
2024/01/23 00:57:47;;;;;;;19.52;8.82;;;;;;;15.63;51.30;101791.50;5002328;28;20460;-41
2024/01/23 01:00:13;;;;;;;18.27;9.20;;;;;;;15.70;50.46;101791.94;5000286;28;20061;-42
2024/01/23 01:02:40;;;;;;;15.43;7.70;;;;;;;15.79;50.09;101788.56;4999295;28;20378;-43
2024/01/23 01:05:07;;;;;;;15.82;8.10;;;;;;;15.90;50.16;101798.44;5002010;28;20502;-42
2024/01/23 01:07:34;;;;;;;16.13;8.00;;;;;;;16.01;50.13;101799.34;4999644;28;20072;-42
2024/01/23 01:10:00;;;;;;;14.10;7.30;;;;;;;16.12;50.30;101806.56;4999420;28;20129;-42
2024/01/23 01:12:27;;;;;;;13.45;7.07;;;;;;;16.23;49.82;101813.72;4996004;28;20050;-43
2024/01/23 01:14:53;;;;;;;12.73;7.45;;;;;;;16.32;49.63;101812.16;5000408;28;20104;-42
2024/01/23 01:17:20;;;;;;;13.30;7.13;;;;;;;16.39;48.94;101818.75;5003624;28;20460;-42
2024/01/23 01:19:48;;;;;;;11.90;6.45;;;;;;;16.45;49.18;101826.31;5000534;28;20050;-42
2024/01/23 01:22:15;;;;;;;15.68;7.20;;;;;;;16.50;49.06;101830.31;4996827;28;20054;-42
2024/01/23 01:24:41;;;;;;;13.77;5.93;;;;;;;16.53;48.96;101843.47;5000425;28;20097;-43
2024/01/23 01:27:08;;;;;;;12.13;6.40;;;;;;;16.51;48.89;101848.06;5000010;28;20053;-43
2024/01/23 01:29:34;;;;;;;12.68;6.20;;;;;;;16.49;49.04;101842.00;5000129;28;20137;-43
2024/01/23 01:32:01;;;;;;;14.65;6.45;;;;;;;16.45;48.39;101840.53;4998854;28;20422;-43
2024/01/23 01:34:28;;;;;;;13.60;6.43;;;;;;;16.43;48.85;101838.94;4998605;28;20061;-42
2024/01/23 01:36:55;;;;;;;11.35;5.90;;;;;;;16.38;49.64;101846.47;4999756;28;20058;-43
2024/01/23 01:39:22;;;;;;;12.52;5.88;;;;;;;16.34;49.45;101848.53;5000057;28;20049;-42
2024/01/23 01:41:55;;;;;;;13.20;5.70;;;;;;;16.29;49.25;101846.22;5001748;28;20046;-42
2024/01/23 01:44:22;;;;;;;13.93;6.32;;;;;;;16.26;49.73;101854.47;4995658;28;20382;-43
2024/01/23 01:46:49;;;;;;;13.77;6.30;;;;;;;16.23;49.65;101865.41;4999172;28;20104;-41
2024/01/23 01:49:17;;;;;;;14.38;5.85;;;;;;;16.22;49.21;101866.38;5000769;28;20061;-42
2024/01/23 01:51:44;;;;;;;14.10;5.88;;;;;;;16.19;50.05;101871.97;4999714;28;20050;-42
2024/01/23 01:54:11;;;;;;;10.93;5.78;;;;;;;16.17;49.38;101879.25;5002675;28;20430;-42
2024/01/23 01:56:40;;;;;;;15.30;5.43;;;;;;;16.15;49.64;101870.47;5001590;28;20050;-42
2024/01/23 01:59:07;;;;;;;12.55;6.32;;;;;;;16.15;49.15;101885.69;4997234;28;20610;-41
2024/01/23 02:01:35;;;;;;;12.45;5.00;;;;;;;16.12;49.21;101883.22;4999729;28;20054;-41
2024/01/23 02:04:02;;;;;;;9.77;4.90;;;;;;;16.09;49.90;101889.69;4999203;28;20056;-41
2024/01/23 02:06:30;;;;;;;12.77;4.80;;;;;;;16.09;49.36;101889.69;4999903;28;20365;-42
2024/01/23 02:08:58;;;;;;;10.77;5.25;;;;;;;16.07;49.39;101886.25;5002047;28;20074;-42
2024/01/23 02:11:24;;;;;;;10.35;4.90;;;;;;;16.06;49.90;101899.75;4995892;28;20092;-42
2024/01/23 02:13:51;;;;;;;11.55;4.82;;;;;;;16.00;50.21;101903.72;5004893;28;20111;-41
2024/01/23 02:16:18;;;;;;;10.10;4.50;;;;;;;15.93;49.52;101903.34;5002184;28;20430;-41
2024/01/23 02:18:45;;;;;;;10.45;4.60;;;;;;;15.90;49.67;101910.72;5004560;28;20049;-39
2024/01/23 02:21:13;;;;;;;9.85;4.35;;;;;;;15.90;49.42;101916.09;5005348;28;20057;-42
2024/01/23 02:23:41;;;;;;;10.57;4.57;;;;;;;15.89;50.18;101922.41;5001094;28;20053;-42
2024/01/23 02:26:08;;;;;;;10.02;4.38;;;;;;;15.92;50.49;101930.19;5004183;28;20045;-42
2024/01/23 02:28:35;;;;;;;10.18;4.35;;;;;;;16.01;49.87;101951.75;5004485;28;20602;-42
2024/01/23 02:31:02;;;;;;;9.20;4.40;;;;;;;16.11;49.61;101949.25;5007765;28;20046;-42
2024/01/23 02:33:29;;;;;;;10.73;4.65;;;;;;;16.23;49.62;101951.00;5006260;28;20046;-42
2024/01/23 02:35:55;;;;;;;11.15;5.03;;;;;;;16.33;48.86;101959.22;5003021;28;20077;-42
2024/01/23 02:38:22;;;;;;;8.77;3.72;;;;;;;16.42;49.51;101952.31;5004509;28;20462;-44
2024/01/23 02:40:49;;;;;;;9.25;4.25;;;;;;;16.49;48.48;101957.09;5006827;28;20050;-42
2024/01/23 02:43:15;;;;;;;8.43;3.80;;;;;;;16.57;49.28;101964.53;5002672;28;20136;-43
2024/01/23 02:45:42;;;;;;;8.13;4.10;;;;;;;16.64;49.10;101949.69;5006252;28;20104;-42
2024/01/23 02:48:09;;;;;;;9.95;4.13;;;;;;;16.69;48.35;101960.91;5005813;28;20053;-43
2024/01/23 02:50:35;;;;;;;8.23;3.63;;;;;;;16.74;48.67;101961.44;4998993;28;20081;-42
2024/01/23 02:53:02;;;;;;;8.10;3.72;;;;;;;16.78;48.51;101970.94;5004150;28;20056;-42
2024/01/23 02:55:29;;;;;;;13.32;4.32;;;;;;;16.80;48.80;101969.97;4999259;28;20050;-44
2024/01/23 02:57:55;;;;;;;8.82;3.92;;;;;;;16.78;48.61;101978.97;5003671;28;20104;-42
2024/01/23 03:00:22;;;;;;;7.40;3.55;;;;;;;16.71;47.92;101980.38;4997560;28;20486;-42
2024/01/23 03:02:49;;;;;;;10.57;3.67;;;;;;;16.66;48.55;101985.25;5002949;28;20414;-43
2024/01/23 03:05:15;;;;;;;7.00;3.55;;;;;;;16.58;48.05;101989.47;5002617;28;20065;-43
2024/01/23 03:07:42;;;;;;;8.90;3.30;;;;;;;16.52;48.57;101994.31;5000175;28;20430;-42
2024/01/23 03:10:09;;;;;;;7.28;2.88;;;;;;;16.47;48.93;102006.31;5003228;28;20382;-43
2024/01/23 03:12:36;;;;;;;9.82;4.15;;;;;;;16.38;48.78;102018.56;4997618;28;20215;-41
2024/01/23 03:15:03;;;;;;;6.75;3.70;;;;;;;16.29;49.27;102014.75;5002808;28;20053;-42
2024/01/23 03:17:29;;;;;;;10.00;3.85;;;;;;;16.23;49.61;102011.69;4998419;28;20396;-43
2024/01/23 03:19:58;;;;;;;10.43;3.78;;;;;;;16.17;49.05;102014.81;5002654;28;20082;-43
2024/01/23 03:22:25;;;;;;;7.75;3.00;;;;;;;16.13;49.79;102024.88;5000575;28;20053;-42
2024/01/23 03:24:52;;;;;;;8.88;3.80;;;;;;;16.09;49.44;102028.75;4999688;28;20050;-42
2024/01/23 03:27:18;;;;;;;10.27;3.97;;;;;;;16.08;49.41;102023.50;4997928;28;20054;-42
2024/01/23 03:29:45;;;;;;;8.07;3.42;;;;;;;16.04;49.41;102036.25;4997364;28;20057;-43
2024/01/23 03:32:12;;;;;;;7.47;3.28;;;;;;;16.01;49.27;102041.81;5003277;28;20057;-42
2024/01/23 03:34:39;;;;;;;8.20;3.20;;;;;;;15.98;49.77;102040.22;5003141;28;20100;-43
2024/01/23 03:37:07;;;;;;;9.05;3.25;;;;;;;15.96;49.98;102050.19;4999363;28;20385;-43
2024/01/23 03:39:34;;;;;;;10.85;3.50;;;;;;;15.96;49.92;102050.19;5006456;28;20074;-42
2024/01/23 03:42:02;;;;;;;7.22;3.38;;;;;;;15.94;49.24;102069.97;5006067;28;20056;-43
2024/01/23 03:44:29;;;;;;;9.23;3.40;;;;;;;15.88;50.15;102071.28;5001636;28;20346;-41
2024/01/23 03:46:57;;;;;;;8.85;3.10;;;;;;;15.82;50.33;102085.06;5004483;28;20132;-41
2024/01/23 03:49:24;;;;;;;8.57;3.25;;;;;;;15.84;50.27;102082.25;5002894;28;20069;-41
2024/01/23 03:51:51;;;;;;;5.30;2.53;;;;;;;15.91;50.41;102083.56;5001967;28;20144;-42
2024/01/23 03:54:18;;;;;;;7.57;2.85;;;;;;;15.97;50.36;102080.44;5004677;28;20062;-41
2024/01/23 03:56:45;;;;;;;7.22;3.17;;;;;;;16.06;50.06;102079.78;5005125;28;20085;-41
2024/01/23 03:59:12;;;;;;;6.05;2.67;;;;;;;16.13;49.38;102088.22;5004261;28;20057;-40
2024/01/23 04:01:39;;;;;;;7.63;3.00;;;;;;;16.20;49.67;102090.34;5006779;28;20050;-42
2024/01/23 04:04:05;;;;;;;7.20;2.72;;;;;;;16.26;49.15;102089.88;5004813;28;20129;-41
2024/01/23 04:06:32;;;;;;;6.78;2.60;;;;;;;16.36;49.81;102102.59;5004677;28;20050;-41
2024/01/23 04:09:00;;;;;;;7.38;2.60;;;;;;;16.44;48.89;102103.75;5006773;28;20054;-42
2024/01/23 04:11:29;;;;;;;8.13;2.92;;;;;;;16.51;48.65;102115.69;5006846;28;20058;-42
2024/01/23 04:13:55;;;;;;;6.70;2.92;;;;;;;16.58;48.68;102125.97;5006552;28;20042;-42
2024/01/23 04:16:22;;;;;;;5.90;2.63;;;;;;;16.64;48.90;102122.81;5007256;28;20704;-42
2024/01/23 04:18:48;;;;;;;5.88;2.63;;;;;;;16.68;48.60;102130.53;5008932;28;20061;-43
2024/01/23 04:21:17;;;;;;;7.10;2.78;;;;;;;16.72;48.51;102129.34;5002861;28;20141;-43
2024/01/23 04:23:44;;;;;;;6.15;2.55;;;;;;;16.74;48.24;102138.13;5003334;28;20406;-43
2024/01/23 04:26:11;;;;;;;7.32;2.90;;;;;;;16.73;48.20;102139.13;5006458;28;20073;-43
2024/01/23 04:28:38;;;;;;;6.32;2.50;;;;;;;16.68;47.98;102151.09;5000672;28;20041;-43
2024/01/23 04:31:04;;;;;;;6.95;2.88;;;;;;;16.62;48.41;102160.44;5003051;28;20045;-42
2024/01/23 04:33:31;;;;;;;8.57;3.22;;;;;;;16.55;48.35;102164.50;5003991;28;20053;-42
2024/01/23 04:35:58;;;;;;;7.53;2.35;;;;;;;16.51;48.25;102171.06;5000105;28;20068;-43
2024/01/23 04:38:24;;;;;;;7.72;2.83;;;;;;;16.43;48.39;102168.94;5007174;28;20264;-41
2024/01/23 04:40:51;;;;;;;8.52;3.30;;;;;;;16.36;48.65;102165.00;5010244;28;20046;-42
2024/01/23 04:43:18;;;;;;;6.72;2.70;;;;;;;16.27;49.21;102177.19;5007037;28;20046;-43
2024/01/23 04:45:45;;;;;;;7.93;2.75;;;;;;;16.23;49.45;102178.38;5011078;28;20050;-43
2024/01/23 04:48:12;;;;;;;8.98;2.97;;;;;;;16.16;49.79;102177.13;5007622;28;20045;-41
2024/01/23 04:50:39;;;;;;;8.50;2.83;;;;;;;16.12;49.66;102185.47;5007389;28;20437;-42
2024/01/23 04:53:05;;;;;;;6.50;2.80;;;;;;;16.07;49.56;102180.44;5000997;28;20347;-42
2024/01/23 04:55:32;;;;;;;6.82;2.58;;;;;;;16.03;50.05;102200.34;5007832;28;20049;-42
2024/01/23 04:57:59;;;;;;;9.60;2.83;;;;;;;15.96;49.32;102199.94;5007548;28;20424;-42
2024/01/23 05:00:25;;;;;;;7.72;3.08;;;;;;;15.93;50.45;102216.19;5001919;28;20069;-42
2024/01/23 05:02:52;;;;;;;8.50;2.72;;;;;;;15.92;49.48;102229.63;5000570;28;20166;-41
2024/01/23 05:05:19;;;;;;;10.32;3.33;;;;;;;15.92;50.24;102237.66;5007206;28;20141;-42
2024/01/23 05:07:45;;;;;;;10.25;2.72;;;;;;;15.92;50.15;102237.66;5007374;28;20050;-41
2024/01/23 05:10:12;;;;;;;10.07;3.72;;;;;;;15.90;49.98;102235.09;4999860;28;20112;-42
2024/01/23 05:12:39;;;;;;;12.65;4.38;;;;;;;15.85;50.21;102241.75;5003565;28;20045;-42
2024/01/23 05:15:07;;;;;;;10.30;4.97;;;;;;;15.85;49.74;102252.44;5002001;28;20050;-43
2024/01/23 05:17:34;;;;;;;13.02;6.50;;;;;;;15.90;49.71;102251.13;5002281;28;20046;-42
2024/01/23 05:20:00;;;;;;;14.23;6.80;;;;;;;15.98;49.66;102247.94;5002261;28;20054;-43
2024/01/23 05:22:27;;;;;;;17.98;8.60;;;;;;;16.10;50.25;102244.41;5000735;28;20472;-43
2024/01/23 05:24:54;;;;;;;15.85;8.52;;;;;;;16.20;49.47;102241.94;5003745;28;20046;-44
2024/01/23 05:27:20;;;;;;;19.35;9.18;;;;;;;16.29;49.69;102250.19;5000768;28;20050;-44
2024/01/23 05:29:47;;;;;;;18.75;9.32;;;;;;;16.37;49.26;102262.19;5001161;28;20657;-44
2024/01/23 05:32:14;;;;;;;19.52;10.68;;;;;;;16.43;49.02;102269.78;4999730;28;20053;-41
2024/01/23 05:34:41;;;;;;;23.40;11.50;;;;;;;16.49;48.59;102272.03;4999019;28;20073;-41
2024/01/23 05:37:07;;;;;;;21.02;11.00;;;;;;;16.54;48.92;102288.59;5003153;28;20054;-42
2024/01/23 05:39:38;;;;;;;22.92;11.63;;;;;;;16.56;48.43;102285.81;5015618;28;20057;-42
2024/01/23 05:42:06;;;;;;;23.10;12.32;;;;;;;16.51;48.13;102289.66;5001896;28;20068;-41
2024/01/23 05:44:34;;;;;;;22.70;12.20;;;;;;;16.47;48.13;102295.34;4998425;28;20046;-42
2024/01/23 05:47:01;;;;;;;22.58;12.40;;;;;;;16.43;49.22;102302.72;4999393;28;20056;-42
2024/01/23 05:49:28;;;;;;;23.05;12.48;;;;;;;16.40;48.84;102307.44;4999593;28;20050;-44
2024/01/23 05:51:54;;;;;;;24.98;13.13;;;;;;;16.35;48.98;102312.25;4999509;28;20058;-43
2024/01/23 05:54:21;;;;;;;27.00;14.30;;;;;;;16.26;48.55;102325.31;5000878;28;20164;-42
2024/01/23 05:56:48;;;;;;;25.38;13.23;;;;;;;16.19;49.38;102318.66;5000750;28;20469;-41
2024/01/23 05:59:15;;;;;;;25.38;13.45;;;;;;;16.14;49.76;102327.97;5001728;28;20053;-41
2024/01/23 06:01:42;;;;;;;25.73;14.15;;;;;;;16.09;49.04;102330.97;4999421;28;20578;-42
2024/01/23 06:04:09;;;;;;;23.38;12.93;;;;;;;16.03;49.10;102336.72;4997238;28;20049;-41
2024/01/23 06:06:40;;;;;;;26.10;13.00;;;;;;;15.98;49.41;102339.72;5000477;28;20100;-42
2024/01/23 06:09:09;;;;;;;24.38;12.95;;;;;;;15.95;49.73;102342.59;5000353;28;20064;-42
2024/01/23 06:11:39;;;;;;;25.48;13.23;;;;;;;15.94;49.59;102340.03;5001876;28;20072;-42
2024/01/23 06:14:07;;;;;;;26.50;13.63;;;;;;;15.92;49.83;102352.63;4996086;28;20129;-42
2024/01/23 06:16:33;;;;;;;22.85;12.35;;;;;;;15.87;49.33;102365.47;5000190;28;20053;-42
2024/01/23 06:19:00;;;;;;;22.13;13.18;;;;;;;15.81;49.99;102363.22;4999300;28;20046;-42
2024/01/23 06:21:27;;;;;;;23.33;11.77;;;;;;;15.83;50.32;102366.63;5005780;28;20054;-41
2024/01/23 06:23:54;;;;;;;23.10;12.88;;;;;;;15.88;49.82;102370.72;5002023;28;20058;-42
2024/01/23 06:26:20;;;;;;;22.85;12.43;;;;;;;15.96;49.20;102372.84;5000467;28;20046;-42
2024/01/23 06:28:47;;;;;;;20.55;11.95;;;;;;;16.04;49.33;102376.75;4997916;28;20054;-42
2024/01/23 06:31:14;;;;;;;22.95;12.77;;;;;;;16.14;49.63;102376.97;4994838;28;20053;-42
2024/01/23 06:33:40;;;;;;;21.50;12.93;;;;;;;16.24;48.89;102386.13;4996893;28;20065;-42
2024/01/23 06:36:07;;;;;;;22.48;13.27;;;;;;;16.34;48.71;102389.00;4999336;28;20450;-42
2024/01/23 06:38:34;;;;;;;23.77;12.85;;;;;;;16.40;48.08;102387.72;5002135;28;20050;-42
2024/01/23 06:41:01;;;;;;;23.67;12.77;;;;;;;16.40;49.26;102390.41;5000410;28;20081;-43
2024/01/23 06:43:27;;;;;;;22.23;12.45;;;;;;;16.37;48.73;102396.84;4998105;28;20042;-41
2024/01/23 06:45:56;;;;;;;25.63;12.05;;;;;;;16.34;48.35;102394.34;4996595;28;20050;-41
2024/01/23 06:48:23;;;;;;;20.42;12.20;;;;;;;16.32;49.26;102396.25;4998912;28;20528;-42
2024/01/23 06:50:50;;;;;;;20.95;11.95;;;;;;;16.29;49.46;102399.19;4999319;28;20404;-42
2024/01/23 06:53:17;;;;;;;22.77;12.18;;;;;;;16.23;48.58;102395.06;4997781;28;20131;-41
2024/01/23 06:55:44;;;;;;;23.27;11.73;;;;;;;16.17;48.45;102405.34;4997671;28;20049;-42
2024/01/23 06:58:11;;;;;;;23.00;12.48;;;;;;;16.12;49.11;102403.00;5007719;28;20069;-42
2024/01/23 07:00:37;;;;;;;21.55;11.02;;;;;;;16.08;49.75;102403.28;5005880;28;20429;-42
2024/01/23 07:03:06;;;;;;;20.25;11.73;;;;;;;16.06;49.82;102405.22;5006404;28;20054;-44
2024/01/23 07:05:33;;;;;;;22.20;11.40;;;;;;;16.02;49.67;102407.22;5005158;28;20053;-42
2024/01/23 07:07:59;;;;;;;22.65;11.75;;;;;;;15.99;48.84;102407.44;5006113;28;20350;-43
2024/01/23 07:10:26;;;;;;;20.02;10.95;;;;;;;15.90;49.60;102418.75;5005017;28;20468;-42
2024/01/23 07:12:53;;;;;;;19.27;10.82;;;;;;;15.86;49.28;102404.72;4999330;28;20081;-42
2024/01/23 07:15:20;;;;;;;21.30;11.82;;;;;;;15.84;49.72;102419.13;5001728;28;20479;-42
2024/01/23 07:17:47;;;;;;;20.65;10.15;;;;;;;15.81;50.03;102419.34;5000405;28;20191;-42
2024/01/23 07:20:14;;;;;;;19.77;10.80;;;;;;;15.78;49.04;102418.59;5001380;28;20054;-42
2024/01/23 07:22:41;;;;;;;20.55;10.63;;;;;;;15.79;50.29;102424.78;5000031;28;20105;-41
2024/01/23 07:25:09;;;;;;;18.88;10.68;;;;;;;15.77;49.11;102422.22;5016949;28;20133;-42
2024/01/23 07:27:39;;;;;;;20.08;10.10;;;;;;;15.76;50.23;102423.19;5000113;28;20058;-43
2024/01/23 07:30:06;;;;;;;19.90;10.25;;;;;;;15.75;50.30;102417.91;4998384;28;20120;-42
2024/01/23 07:32:32;;;;;;;20.02;9.98;;;;;;;15.75;50.18;102416.09;5001506;28;20468;-40
2024/01/23 07:34:59;;;;;;;18.50;9.60;;;;;;;15.75;50.21;102421.44;5004167;28;20042;-42
2024/01/23 07:37:26;;;;;;;17.67;9.45;;;;;;;15.77;50.02;102426.72;5002500;28;20430;-42
2024/01/23 07:39:52;;;;;;;15.82;9.23;;;;;;;15.76;50.12;102433.03;5002785;28;20054;-42
2024/01/23 07:42:19;;;;;;;19.83;8.23;;;;;;;15.75;49.33;102434.81;4998884;28;20054;-42
2024/01/23 07:44:47;;;;;;;18.77;9.23;;;;;;;15.77;49.37;102435.59;4997842;28;20046;-41
2024/01/23 07:47:13;;;;;;;18.55;8.70;;;;;;;15.77;49.94;102434.72;4995881;28;20054;-42
2024/01/23 07:49:40;;;;;;;16.38;8.68;;;;;;;15.75;50.02;102440.16;4999278;28;20392;-42
2024/01/23 07:52:10;;;;;;;18.05;8.45;;;;;;;15.74;49.39;102442.94;5000877;28;20069;-42
2024/01/23 07:54:36;;;;;;;18.02;8.60;;;;;;;15.73;49.13;102444.75;5003797;28;20046;-42
2024/01/23 07:57:03;;;;;;;15.73;8.10;;;;;;;15.71;49.15;102451.16;5000081;28;20054;-41
2024/01/23 07:59:30;;;;;;;20.38;9.52;;;;;;;15.70;50.03;102457.47;5001123;28;20108;-42
2024/01/23 08:02:00;;;;;;;17.10;8.52;;;;;;;15.67;48.95;102457.66;5001026;28;20085;-40
2024/01/23 08:04:27;;;;;;;18.67;8.40;;;;;;;15.64;49.04;102458.69;5002306;28;20342;-42
2024/01/23 08:06:54;;;;;;;14.85;7.45;;;;;;;15.62;49.25;102463.28;4999386;28;20475;-42
2024/01/23 08:09:20;;;;;;;17.67;8.15;;;;;;;15.61;49.23;102468.72;4999243;28;20057;-41
2024/01/23 08:11:48;;;;;;;17.45;7.72;;;;;;;15.59;49.49;102478.63;5003192;28;20050;-42
2024/01/23 08:14:15;;;;;;;14.45;7.22;;;;;;;15.55;50.28;102492.19;5002906;28;20133;-41
2024/01/23 08:16:44;;;;;;;16.88;7.47;;;;;;;15.55;49.27;102491.34;5000072;28;20054;-42
2024/01/23 08:19:11;;;;;;;15.90;7.85;;;;;;;15.54;49.63;102516.34;5002147;28;20058;-42
2024/01/23 08:21:38;;;;;;;16.77;8.23;;;;;;;15.54;49.37;102519.88;5003351;28;20071;-42
2024/01/23 08:24:05;;;;;;;15.50;7.22;;;;;;;15.54;49.81;102527.03;5002723;28;20333;-41
2024/01/23 08:26:32;;;;;;;16.92;7.60;;;;;;;15.54;49.33;102540.41;5004564;28;20062;-43
2024/01/23 08:28:59;;;;;;;16.17;7.40;;;;;;;15.54;50.05;102543.06;4999481;28;20054;-42
2024/01/23 08:31:26;;;;;;;14.38;6.50;;;;;;;15.54;50.06;102537.72;4998365;28;20656;-42
2024/01/23 08:33:53;;;;;;;17.35;7.40;;;;;;;15.55;50.06;102540.28;5000412;28;20058;-42
2024/01/23 08:36:21;;;;;;;15.35;6.90;;;;;;;15.54;49.78;102551.94;4997148;28;20058;-43
2024/01/23 08:38:47;;;;;;;15.55;6.95;;;;;;;15.53;48.97;102549.38;4999895;28;20118;-42
2024/01/23 08:41:14;;;;;;;14.75;6.13;;;;;;;15.53;49.18;102549.38;5000222;28;20053;-42
2024/01/23 08:43:41;;;;;;;16.05;6.97;;;;;;;15.55;49.32;102539.44;5001604;28;20350;-42
2024/01/23 08:46:07;;;;;;;15.45;6.10;;;;;;;15.57;49.72;102548.25;4999438;28;20107;-42
2024/01/23 08:48:34;;;;;;;15.30;6.78;;;;;;;15.60;49.67;102553.41;5003516;28;20100;-41
2024/01/23 08:51:01;;;;;;;16.00;6.35;;;;;;;15.65;49.47;102550.47;4998913;28;20124;-42
2024/01/23 08:53:28;;;;;;;15.02;6.18;;;;;;;15.69;48.82;102558.19;4997872;28;20326;-42
2024/01/23 08:55:54;;;;;;;13.93;6.40;;;;;;;15.74;49.16;102564.09;5000077;28;20050;-42
2024/01/23 08:58:21;;;;;;;12.90;5.90;;;;;;;15.78;49.36;102562.94;5001551;28;20077;-42
2024/01/23 09:00:48;;;;;;;17.02;6.28;;;;;;;15.81;48.17;102569.06;4999250;28;20427;-42
2024/01/23 09:03:15;;;;;;;18.80;6.70;;;;;;;15.79;48.71;102572.69;5003675;28;20092;-42
2024/01/23 09:05:42;;;;;;;12.30;5.88;;;;;;;15.80;48.94;102570.91;4997970;28;20077;-42
2024/01/23 09:08:12;;;;;;;11.18;6.03;;;;;;;15.84;48.64;102572.41;4999227;28;20061;-42
2024/01/23 09:10:38;;;;;;;11.68;5.80;;;;;;;15.86;49.19;102567.81;5000101;28;20450;-42
2024/01/23 09:13:05;;;;;;;15.52;6.18;;;;;;;15.89;48.21;102572.13;4995526;28;20100;-42
2024/01/23 09:15:32;;;;;;;13.27;5.75;;;;;;;15.93;49.03;102554.94;5002508;28;20429;-42
2024/01/23 09:18:00;;;;;;;14.00;5.50;;;;;;;15.96;48.32;102554.69;4998978;28;20157;-43
2024/01/23 09:20:27;;;;;;;16.40;6.15;;;;;;;16.02;48.19;102557.00;4994612;28;20053;-43
2024/01/23 09:22:54;;;;;;;10.40;5.32;;;;;;;16.06;48.49;102563.00;5004843;28;20052;-43
2024/01/23 09:25:21;;;;;;;12.55;5.00;;;;;;;16.09;48.21;102555.66;5004584;28;20050;-43
2024/01/23 09:27:50;;;;;;;12.02;4.80;;;;;;;16.13;49.16;102535.78;5003492;28;20077;-43
2024/01/23 09:30:20;;;;;;;12.32;5.97;;;;;;;16.17;48.71;102542.63;5001760;28;20062;-43
2024/01/23 09:32:53;;;;;;;15.93;5.63;;;;;;;16.21;48.55;102548.66;4999353;28;20054;-42
2024/01/23 09:35:20;;;;;;;11.30;5.72;;;;;;;16.25;48.59;102560.88;5002621;28;20042;-42
2024/01/23 09:37:46;;;;;;;12.57;5.85;;;;;;;16.29;48.29;102557.03;5003827;28;20057;-43
2024/01/23 09:40:15;;;;;;;15.13;5.45;;;;;;;16.33;47.80;102555.03;5000454;28;20049;-43
2024/01/23 09:42:44;;;;;;;14.68;5.47;;;;;;;16.36;47.81;102557.47;5002032;28;20141;-42
2024/01/23 09:45:18;;;;;;;10.95;5.20;;;;;;;16.39;47.88;102563.47;5001853;28;20046;-42
2024/01/23 09:47:47;;;;;;;15.60;5.97;;;;;;;16.43;48.27;102574.84;5003421;28;20625;-42
2024/01/23 09:50:17;;;;;;;13.35;5.38;;;;;;;16.46;48.66;102578.19;4999141;28;20069;-38
2024/01/23 09:52:46;;;;;;;14.32;5.38;;;;;;;16.49;48.05;102574.47;4998536;28;20128;-41
2024/01/23 09:55:13;;;;;;;13.13;5.03;;;;;;;16.52;48.04;102582.25;5001815;28;20612;-36
2024/01/23 09:57:42;;;;;;;12.43;5.38;;;;;;;16.54;48.13;102575.88;5001044;28;20084;-38
2024/01/23 10:00:13;;;;;;;9.05;4.47;;;;;;;16.57;47.85;102580.16;4997074;28;20438;-37
2024/01/23 10:02:41;;;;;;;13.68;4.22;;;;;;;16.61;48.28;102581.69;4996314;28;20053;-38
2024/01/23 10:05:09;;;;;;;12.82;4.88;;;;;;;16.66;47.61;102574.19;5005197;28;20045;-39
2024/01/23 10:07:37;;;;;;;13.20;4.72;;;;;;;16.69;47.33;102576.66;4999344;28;20127;-40
2024/01/23 10:10:14;;;;;;;14.82;4.93;;;;;;;16.73;47.13;102564.81;5004577;28;20046;-40
2024/01/23 10:12:49;;;;;;;9.02;4.38;;;;;;;16.77;47.91;102563.66;5005298;28;20140;-39
2024/01/23 10:15:18;;;;;;;10.85;4.57;;;;;;;16.83;47.49;102550.81;4998528;28;20465;-37
2024/01/23 10:17:45;;;;;;;9.60;4.18;;;;;;;16.87;47.57;102561.19;5002792;28;20383;-37
2024/01/23 10:20:15;;;;;;;10.77;3.83;;;;;;;16.91;47.79;102562.72;5001362;28;20058;-40
2024/01/23 10:22:47;;;;;;;12.02;4.55;;;;;;;16.95;47.54;102558.84;4999171;28;20133;-39
2024/01/23 10:25:19;;;;;;;10.50;4.18;;;;;;;16.99;47.41;102568.41;5002886;28;20042;-41
2024/01/23 10:27:50;;;;;;;10.77;4.13;;;;;;;17.04;47.74;102570.75;4998938;28;20046;-42
2024/01/23 10:30:16;;;;;;;10.52;4.38;;;;;;;17.08;47.32;102569.59;4995697;28;20058;-39
2024/01/23 10:32:44;;;;;;;12.73;4.93;;;;;;;17.12;47.44;102556.84;5003558;28;20112;-42
2024/01/23 10:35:11;;;;;;;11.00;4.63;;;;;;;17.15;47.55;102556.63;5002263;28;20446;-40
2024/01/23 10:37:40;;;;;;;8.13;4.25;;;;;;;17.17;47.61;102560.09;5003658;28;20054;-41
2024/01/23 10:40:13;;;;;;;10.75;4.25;;;;;;;17.19;47.45;102553.63;5006049;28;20109;-41
2024/01/23 10:42:40;;;;;;;10.95;4.30;;;;;;;17.22;46.57;102553.44;5002633;28;20541;-41
2024/01/23 10:45:16;;;;;;;15.23;4.32;;;;;;;17.23;46.82;102555.13;5005058;28;20644;-42
2024/01/23 10:47:45;;;;;;;12.18;4.60;;;;;;;17.26;46.85;102557.63;5005677;28;20384;-41
2024/01/23 10:50:12;;;;;;;11.30;4.43;;;;;;;17.27;46.74;102556.63;5001674;28;20090;-42
2024/01/23 10:52:40;;;;;;;10.48;4.22;;;;;;;17.28;46.49;102558.34;5001434;28;20275;-42
2024/01/23 10:55:07;;;;;;;15.07;4.05;;;;;;;17.29;46.20;102567.28;5003605;28;20049;-41
2024/01/23 10:57:36;;;;;;;10.85;4.13;;;;;;;17.30;46.30;102549.38;5001132;28;20061;-42
2024/01/23 11:00:09;;;;;;;18.60;5.22;;;;;;;17.31;46.31;102553.75;5001708;28;20422;-39
2024/01/23 11:02:42;;;;;;;10.57;4.25;;;;;;;17.31;46.41;102540.34;5004762;28;20074;-41
2024/01/23 11:05:09;;;;;;;15.85;4.45;;;;;;;17.32;46.23;102536.69;5002015;28;20462;-42
2024/01/23 11:07:55;;;;;;;11.88;4.30;;;;;;;17.30;45.45;102522.56;5004562;28;20054;-42
2024/01/23 11:10:31;;;;;;;12.20;4.05;;;;;;;17.31;45.97;102524.28;5003091;28;20104;-42
2024/01/23 11:13:19;;;;;;;10.48;3.95;;;;;;;17.30;45.89;102506.50;5003160;28;20053;-43
2024/01/23 11:15:47;;;;;;;11.10;4.53;;;;;;;17.31;45.67;102498.31;5002413;28;20469;-43
2024/01/23 11:18:22;;;;;;;11.10;3.80;;;;;;;17.28;45.87;102494.03;5004106;28;20390;-42